Terminal Aerodrome Forecast
Issued by NWS

Home | Current Version | Previous Version | Graphics & Text | Print | Product List | Glossary On
Versions: 1 2 3 4 5 6 7 8 9 10 11 12 13 14 15 16 17
000
FTUS43 KMPX 261139
TAFRNH
TAF
KRNH 261139Z 2612/2712 17007KT P6SM -SN OVC010
      TEMPO 2612/2616 OVC008
     FM261800 27010KT P6SM OVC020
     FM270700 34005KT P6SM SCT020 BKN150=

USA.gov is the U.S. government's official web portal to all federal, state and local government web resources and services.